Time;durP1;ratioP1;P1;durP2;ratioP2;P2;SDS_P1;SDS_P2;PMS_P1;PMS_P2;Temp;Humidity;BMP_temperature;BMP_pressure;BME280_temperature;BME280_humidity;BME280_pressure;Samples;Min_cycle;Max_cycle;Signal;HPM_P1;HPM_P2
2023/10/10 00:00:55;;;;;;;53.13;34.92;;;15.40;99.90;;;;;;5131424;28;20032;-70
2023/10/10 00:03:21;;;;;;;56.72;35.70;;;15.30;99.90;;;;;;5131785;28;20029;-70
2023/10/10 00:05:47;;;;;;;65.75;37.53;;;15.20;99.90;;;;;;5131854;28;20461;-69
2023/10/10 00:08:15;;;;;;;56.80;35.83;;;15.20;99.90;;;;;;5131894;28;20019;-70
2023/10/10 00:10:49;;;;;;;56.13;35.22;;;15.10;99.90;;;;;;5131864;28;20369;-69
2023/10/10 00:13:16;;;;;;;52.47;34.40;;;15.20;99.90;;;;;;5131371;28;20028;-69
2023/10/10 00:15:49;;;;;;;65.22;38.92;;;15.10;99.90;;;;;;5131685;28;20019;-69
2023/10/10 00:18:19;;;;;;;62.55;37.10;;;15.00;99.90;;;;;;5131039;28;20028;-69
2023/10/10 00:21:04;;;;;;;57.88;35.95;;;15.00;99.90;;;;;;5131137;28;20076;-69
2023/10/10 00:23:33;;;;;;;66.35;39.22;;;14.90;99.90;;;;;;5131029;28;20443;-69
2023/10/10 00:25:59;;;;;;;65.03;37.00;;;14.90;99.90;;;;;;5131183;28;20031;-69
2023/10/10 00:28:27;;;;;;;66.72;39.63;;;14.90;99.90;;;;;;5131132;28;20024;-69
2023/10/10 00:30:53;;;;;;;86.75;44.30;;;15.00;99.90;;;;;;5131388;28;20016;-69
2023/10/10 00:33:20;;;;;;;78.22;44.92;;;15.00;99.90;;;;;;5131424;28;20100;-69
2023/10/10 00:35:47;;;;;;;86.57;46.80;;;14.50;99.90;;;;;;5121600;28;20024;-69
2023/10/10 00:38:19;;;;;;;92.90;50.30;;;15.00;99.90;;;;;;5116883;28;20027;-69
2023/10/10 00:40:47;;;;;;;102.22;51.47;;;14.90;99.90;;;;;;5117306;28;20035;-69
2023/10/10 00:43:15;;;;;;;77.78;47.72;;;14.80;99.90;;;;;;5116424;28;20028;-69
2023/10/10 00:45:44;;;;;;;95.93;50.17;;;14.80;99.90;;;;;;5117255;28;20039;-69
2023/10/10 00:48:10;;;;;;;88.05;48.53;;;14.80;99.90;;;;;;5117106;28;20023;-69
2023/10/10 00:50:37;;;;;;;86.78;47.58;;;14.60;99.90;;;;;;5116415;28;20495;-69
2023/10/10 00:53:08;;;;;;;76.85;43.67;;;14.70;99.90;;;;;;5116379;28;20034;-69
2023/10/10 00:55:33;;;;;;;77.57;43.83;;;14.60;99.90;;;;;;5116287;28;20039;-69
2023/10/10 00:58:01;;;;;;;67.63;40.88;;;14.70;99.90;;;;;;5117245;28;20126;-69
2023/10/10 01:00:29;;;;;;;75.65;43.58;;;14.50;99.90;;;;;;5116852;28;20115;-69
2023/10/10 01:03:06;;;;;;;71.03;40.00;;;14.50;99.90;;;;;;5117081;28;20063;-69
2023/10/10 01:05:44;;;;;;;78.75;45.03;;;14.60;99.90;;;;;;5117017;28;20110;-69
2023/10/10 01:08:10;;;;;;;77.65;44.80;;;14.60;99.90;;;;;;5115876;28;20027;-69
2023/10/10 01:10:43;;;;;;;74.93;42.28;;;14.80;99.90;;;;;;5116916;28;20024;-69
2023/10/10 01:13:10;;;;;;;84.03;44.85;;;14.30;99.90;;;;;;5116909;28;20032;-70
2023/10/10 01:15:37;;;;;;;81.97;46.72;;;14.60;99.90;;;;;;5116493;28;20065;-70
2023/10/10 01:18:03;;;;;;;84.88;46.10;;;14.50;99.90;;;;;;5116738;28;20454;-70
2023/10/10 01:20:44;;;;;;;87.45;46.30;;;14.60;99.90;;;;;;5116823;28;20115;-69
2023/10/10 01:23:11;;;;;;;104.32;56.67;;;14.60;99.90;;;;;;5115407;28;20044;-69
2023/10/10 01:28:13;;;;;;;88.93;49.13;;;14.60;99.90;;;;;;5115941;28;20019;-69
2023/10/10 01:34:00;;;;;;;85.90;47.42;;;14.50;99.90;;;;;;5115806;28;20027;-70
2023/10/10 01:36:12;;;;;;;86.10;49.25;;;14.50;99.90;;;;;;5115277;28;20519;-75
2023/10/10 01:41:23;;;;;;;99.88;54.65;;;14.60;99.90;;;;;;5111948;27;20385;-71
2023/10/10 01:43:53;;;;;;;81.38;47.65;;;14.50;99.90;;;;;;5112178;28;20038;-70
2023/10/10 01:46:27;;;;;;;113.28;54.75;;;14.50;99.90;;;;;;5111256;28;20077;-70
2023/10/10 01:48:54;;;;;;;91.32;50.38;;;14.60;99.90;;;;;;5111436;27;20118;-70
2023/10/10 01:51:19;;;;;;;81.88;45.53;;;14.50;99.90;;;;;;5111582;27;20024;-70
2023/10/10 01:53:45;;;;;;;72.55;42.25;;;14.50;99.90;;;;;;5110684;28;20027;-70
2023/10/10 01:56:12;;;;;;;79.60;44.78;;;14.50;99.90;;;;;;5111893;28;20073;-70
2023/10/10 01:58:38;;;;;;;90.00;49.50;;;14.50;99.90;;;;;;5111242;28;20116;-70
2023/10/10 02:01:13;;;;;;;77.50;43.80;;;14.70;99.90;;;;;;5111427;28;20024;-70
2023/10/10 02:03:40;;;;;;;82.95;44.97;;;14.80;99.90;;;;;;5111351;28;20077;-70
2023/10/10 02:06:09;;;;;;;89.57;47.83;;;14.40;99.90;;;;;;5111429;28;20412;-70
2023/10/10 02:08:38;;;;;;;89.53;51.05;;;14.70;99.90;;;;;;5111694;28;20024;-70
2023/10/10 02:11:05;;;;;;;111.43;60.97;;;14.80;99.90;;;;;;5111281;28;20024;-70
2023/10/10 02:13:33;;;;;;;118.68;62.03;;;15.10;99.90;;;;;;5111292;28;20024;-70
2023/10/10 02:16:01;;;;;;;127.30;63.00;;;14.90;99.90;;;;;;5111476;28;20462;-70
2023/10/10 02:18:44;;;;;;;116.53;57.92;;;14.60;99.90;;;;;;5111202;28;20032;-70
2023/10/10 02:21:16;;;;;;;;;;;14.60;99.90;;;;;;5111330;28;20032;-70
2023/10/10 02:23:45;;;;;;;87.30;48.90;;;14.90;99.90;;;;;;5111068;28;19911;-70
2023/10/10 02:26:35;;;;;;;105.30;56.08;;;15.00;99.90;;;;;;5111248;28;20457;-70
2023/10/10 02:29:16;;;;;;;84.10;47.42;;;14.70;99.90;;;;;;5110180;28;20473;-70
2023/10/10 02:31:45;;;;;;;78.18;43.95;;;14.80;99.90;;;;;;5109361;28;20416;-70
2023/10/10 02:34:11;;;;;;;70.55;42.58;;;14.80;99.90;;;;;;5111157;28;20055;-69
2023/10/10 02:36:40;;;;;;;71.03;42.63;;;14.60;99.90;;;;;;5110846;28;20020;-69
2023/10/10 02:39:19;;;;;;;76.43;42.97;;;15.00;99.90;;;;;;5110632;28;20065;-69
2023/10/10 02:41:50;;;;;;;87.65;49.20;;;14.80;99.90;;;;;;5110577;27;20426;-69
2023/10/10 02:45:13;;;;;;;82.18;45.33;;;14.80;99.90;;;;;;5110899;28;20119;-69
2023/10/10 02:47:01;;;;;;;68.95;41.67;;;14.80;99.90;;;;;;5109759;28;20031;-69
2023/10/10 02:52:07;;;;;;;123.20;59.72;;;14.80;99.90;;;;;;5111974;27;20288;-69
2023/10/10 02:54:35;;;;;;;102.28;54.00;;;14.80;99.90;;;;;;5112207;28;20373;-69
2023/10/10 02:57:39;;;;;;;89.57;48.47;;;14.80;99.90;;;;;;5111796;28;20051;-69
2023/10/10 02:59:52;;;;;;;77.25;46.08;;;14.80;99.90;;;;;;5110885;28;20423;-69
2023/10/10 03:02:19;;;;;;;76.60;46.15;;;14.80;99.90;;;;;;5111691;28;20044;-69
2023/10/10 03:05:05;;;;;;;72.07;43.05;;;14.80;99.90;;;;;;5111889;28;20063;-69
2023/10/10 03:07:32;;;;;;;92.82;49.72;;;14.70;99.90;;;;;;5111229;28;20031;-69
2023/10/10 03:13:03;;;;;;;77.15;43.38;;;14.60;99.90;;;;;;5112032;27;20376;-69
2023/10/10 03:15:30;;;;;;;72.72;41.55;;;14.30;99.90;;;;;;5111812;28;20496;-69
2023/10/10 03:25:54;;;;;;;87.85;48.28;;;14.40;99.90;;;;;;5112005;27;20424;-68
2023/10/10 03:28:29;;;;;;;83.38;47.65;;;14.40;99.90;;;;;;5111461;28;20051;-68
2023/10/10 03:34:32;;;;;;;67.97;42.13;;;14.50;99.90;;;;;;5111938;27;20380;-69
2023/10/10 05:24:42;;;;;;;92.15;49.05;;;13.40;99.90;;;;;;5095963;28;20027;-69
2023/10/10 05:27:10;;;;;;;115.18;57.58;;;13.20;99.90;;;;;;5096410;28;20073;-68
2023/10/10 05:29:36;;;;;;;103.22;51.72;;;13.50;99.90;;;;;;5096242;28;20058;-68
2023/10/10 05:32:08;;;;;;;111.57;53.85;;;13.50;99.90;;;;;;5096074;28;20132;-68
2023/10/10 05:34:35;;;;;;;109.13;52.42;;;13.60;99.90;;;;;;5095929;28;20466;-68
2023/10/10 05:37:01;;;;;;;133.25;62.35;;;13.60;99.90;;;;;;5096184;28;20029;-68
2023/10/10 05:39:32;;;;;;;124.80;60.30;;;13.70;99.90;;;;;;5096245;28;20017;-68
2023/10/10 05:41:59;;;;;;;128.43;61.95;;;13.80;99.90;;;;;;5095742;28;20442;-68
2023/10/10 05:44:25;;;;;;;126.75;61.22;;;13.80;99.90;;;;;;5095974;28;20513;-68
2023/10/10 05:46:50;;;;;;;113.80;57.03;;;13.90;99.90;;;;;;5095685;28;20107;-68
2023/10/10 05:49:17;;;;;;;122.40;60.42;;;14.10;99.90;;;;;;5095816;28;20089;-68
2023/10/10 05:51:42;;;;;;;132.57;62.58;;;14.00;99.90;;;;;;5095835;28;20464;-68
2023/10/10 05:54:11;;;;;;;154.85;68.38;;;14.00;99.90;;;;;;5095327;28;20123;-69
2023/10/10 05:56:37;;;;;;;132.20;63.28;;;14.10;99.90;;;;;;5094767;28;20061;-69
2023/10/10 05:59:03;;;;;;;120.85;59.40;;;14.10;99.90;;;;;;5095170;28;20020;-69
2023/10/10 06:01:30;;;;;;;145.43;70.28;;;14.10;99.90;;;;;;5095630;28;20468;-69
2023/10/10 06:03:56;;;;;;;141.40;68.30;;;14.20;99.90;;;;;;5095601;28;20049;-71
2023/10/10 06:06:22;;;;;;;137.15;63.63;;;14.20;99.90;;;;;;5097258;28;20485;-69
2023/10/10 06:08:53;;;;;;;175.85;77.32;;;14.30;99.90;;;;;;5093346;28;20028;-69
2023/10/10 06:11:19;;;;;;;128.02;60.83;;;14.40;99.90;;;;;;5095648;28;20398;-69
2023/10/10 06:13:46;;;;;;;123.57;58.95;;;14.50;99.90;;;;;;5097037;28;20028;-69
2023/10/10 06:16:14;;;;;;;189.55;79.72;;;14.60;99.90;;;;;;5094398;28;20466;-69
2023/10/10 06:18:42;;;;;;;164.20;74.05;;;14.70;99.90;;;;;;5094238;28;20546;-69
2023/10/10 06:21:08;;;;;;;143.93;65.03;;;14.70;99.90;;;;;;5094290;28;20039;-69
2023/10/10 06:23:35;;;;;;;133.65;62.03;;;14.70;99.90;;;;;;5094239;28;20035;-69
2023/10/10 06:26:02;;;;;;;128.02;58.50;;;14.90;99.90;;;;;;5093663;28;20027;-69
2023/10/10 06:28:34;;;;;;;174.07;73.65;;;14.70;99.90;;;;;;5089993;28;20522;-69
2023/10/10 06:31:00;;;;;;;147.67;66.00;;;15.00;99.90;;;;;;5096434;28;20537;-69
2023/10/10 06:33:29;;;;;;;139.25;63.42;;;15.10;99.90;;;;;;5089777;28;20128;-69
2023/10/10 06:36:32;;;;;;;147.00;65.38;;;15.20;99.90;;;;;;5081182;28;20028;-69
2023/10/10 06:41:40;;;;;;;146.48;65.28;;;15.20;99.90;;;;;;5093939;28;20392;-68
2023/10/10 06:44:13;;;;;;;134.98;60.35;;;15.40;99.90;;;;;;5093156;28;20075;-68
2023/10/10 06:46:40;;;;;;;167.60;66.82;;;15.50;99.90;;;;;;5092021;28;20036;-69
2023/10/10 06:49:06;;;;;;;164.52;65.18;;;15.50;99.90;;;;;;5094381;28;20081;-69
2023/10/10 06:51:39;;;;;;;153.82;63.53;;;15.50;99.90;;;;;;5096872;28;20040;-69
2023/10/10 06:54:08;;;;;;;157.63;61.45;;;15.60;99.90;;;;;;5092916;28;20024;-69
2023/10/10 06:56:44;;;;;;;169.93;66.20;;;15.60;99.90;;;;;;5093734;28;20028;-70
2023/10/10 06:59:16;;;;;;;159.75;64.65;;;15.70;99.90;;;;;;5094725;28;20031;-70
2023/10/10 07:01:45;;;;;;;159.57;62.35;;;15.70;99.90;;;;;;5099908;28;20076;-70
2023/10/10 07:04:12;;;;;;;159.52;64.03;;;15.60;99.90;;;;;;5074846;28;20024;-70
2023/10/10 07:06:38;;;;;;;143.38;58.60;;;15.70;99.90;;;;;;5096383;28;20435;-70
2023/10/10 07:09:28;;;;;;;158.10;62.40;;;15.80;99.90;;;;;;5091610;28;20032;-70
2023/10/10 07:11:49;;;;;;;139.35;58.40;;;15.90;99.90;;;;;;5078947;28;20051;-70
2023/10/10 07:14:16;;;;;;;145.23;57.35;;;16.00;99.90;;;;;;5074112;28;20407;-71
2023/10/10 07:16:44;;;;;;;122.88;54.50;;;16.10;99.90;;;;;;5082249;28;20067;-71
2023/10/10 07:19:30;;;;;;;113.53;51.08;;;16.30;99.90;;;;;;5090687;28;20020;-70
2023/10/10 07:21:56;;;;;;;121.75;54.15;;;17.40;99.90;;;;;;5084471;28;20024;-71
2023/10/10 07:24:28;;;;;;;92.55;47.03;;;;;;;;;;5094342;28;20016;-71
2023/10/10 07:27:30;;;;;;;84.00;42.78;;;;;;;;;;5093573;28;20110;-71
2023/10/10 07:32:17;;;;;;;74.25;37.83;;;19.30;99.90;;;;;;5093201;28;20060;-71
2023/10/10 07:34:49;;;;;;;67.97;37.20;;;19.50;99.90;;;;;;5094031;28;20359;-71
2023/10/10 07:37:16;;;;;;;61.38;35.25;;;;;;;;;;5093562;28;20489;-71
2023/10/10 07:40:06;;;;;;;68.57;36.50;;;20.40;99.90;;;;;;5094823;28;20533;-71
2023/10/10 07:42:29;;;;;;;73.43;36.40;;;20.50;99.90;;;;;;5093080;28;20385;-71
2023/10/10 07:44:55;;;;;;;60.65;35.30;;;20.80;99.90;;;;;;5103951;28;20111;-71
2023/10/10 07:47:26;;;;;;;69.47;36.97;;;20.40;99.90;;;;;;5113973;28;20484;-71
2023/10/10 07:49:55;;;;;;;72.88;38.13;;;20.10;99.90;;;;;;5114043;28;20111;-71
2023/10/10 07:52:22;;;;;;;63.80;37.30;;;19.80;99.90;;;;;;5106196;28;20076;-71
2023/10/10 07:54:53;;;;;;;68.45;38.22;;;19.30;99.90;;;;;;5077545;28;20033;-70
2023/10/10 07:57:22;;;;;;;75.88;38.28;;;19.10;99.90;;;;;;5094912;28;20024;-70
2023/10/10 07:59:58;;;;;;;72.72;38.97;;;19.60;99.90;;;;;;5093268;28;20390;-71
2023/10/10 08:02:26;;;;;;;67.88;38.85;;;20.10;99.90;;;;;;5091443;28;20036;-71
2023/10/10 08:04:54;;;;;;;70.55;39.28;;;20.10;95.60;;;;;;5095012;28;20111;-71
2023/10/10 08:07:19;;;;;;;70.85;38.42;;;20.70;63.90;;;;;;5094594;28;20126;-71
2023/10/10 08:09:46;;;;;;;71.15;38.97;;;20.60;55.60;;;;;;5095880;28;20127;-71
2023/10/10 08:12:13;;;;;;;71.20;39.75;;;20.70;49.00;;;;;;5092930;28;20031;-71
2023/10/10 08:14:39;;;;;;;67.47;40.97;;;20.80;44.80;;;;;;5093672;28;20136;-71
2023/10/10 08:17:18;;;;;;;65.78;39.58;;;20.60;39.90;;;;;;5093292;28;20023;-71
2023/10/10 08:19:50;;;;;;;66.57;38.75;;;;;;;;;;5095323;28;20035;-71
2023/10/10 08:22:19;;;;;;;71.60;39.30;;;21.60;19.90;;;;;;5097379;28;20400;-71
2023/10/10 08:24:47;;;;;;;66.13;37.40;;;21.80;21.30;;;;;;5097477;28;20039;-71
2023/10/10 08:27:15;;;;;;;68.15;38.45;;;;;;;;;;5097250;28;20458;-72
2023/10/10 08:29:42;;;;;;;70.55;39.30;;;;;;;;;;5096785;28;20377;-71
2023/10/10 08:32:08;;;;;;;62.95;39.30;;;22.20;1.00;;;;;;5096764;28;20072;-71
2023/10/10 08:34:38;;;;;;;66.40;40.90;;;22.10;1.00;;;;;;5096229;28;20024;-71
2023/10/10 08:37:05;;;;;;;60.60;38.53;;;22.10;1.00;;;;;;5112333;28;20028;-71
2023/10/10 08:39:39;;;;;;;67.43;39.78;;;22.30;1.00;;;;;;5099148;28;20016;-72
2023/10/10 08:42:06;;;;;;;64.40;39.88;;;22.00;1.00;;;;;;5096972;28;20436;-71
2023/10/10 08:44:37;;;;;;;58.40;37.25;;;22.10;1.00;;;;;;5096582;28;20028;-71
2023/10/10 08:47:06;;;;;;;63.13;38.10;;;22.00;1.00;;;;;;5097171;28;20545;-71
2023/10/10 08:49:32;;;;;;;64.55;39.35;;;21.90;1.00;;;;;;5096560;28;20028;-71
2023/10/10 08:52:01;;;;;;;65.00;38.80;;;21.50;1.00;;;;;;5097128;28;20036;-72
2023/10/10 08:54:27;;;;;;;65.93;39.78;;;21.50;1.00;;;;;;5090096;28;20050;-71
2023/10/10 08:57:00;;;;;;;66.78;40.10;;;21.40;1.00;;;;;;5099775;28;20424;-72
2023/10/10 08:59:28;;;;;;;64.75;38.63;;;21.50;1.00;;;;;;5099331;28;20084;-71
2023/10/10 09:01:55;;;;;;;59.03;38.15;;;21.90;1.00;;;;;;5095548;28;20024;-72
2023/10/10 09:04:27;;;;;;;59.15;37.63;;;21.90;1.00;;;;;;5096382;28;20042;-72
2023/10/10 09:09:34;;;;;;;54.17;35.45;;;22.20;1.00;;;;;;5119326;27;20403;-72
2023/10/10 09:12:04;;;;;;;59.22;35.70;;;22.80;1.00;;;;;;5117131;27;20027;-72
2023/10/10 09:14:50;;;;;;;56.47;35.45;;;22.20;1.00;;;;;;5110026;28;20481;-72
2023/10/10 09:17:35;;;;;;;55.40;34.40;;;22.60;1.00;;;;;;5101548;28;20023;-72
2023/10/10 09:20:33;;;;;;;55.08;33.55;;;22.70;99.90;;;;;;5110384;28;20378;-72
2023/10/10 09:22:51;;;;;;;57.47;32.67;;;22.90;99.90;;;;;;5104805;28;20023;-72
2023/10/10 09:25:25;;;;;;;54.45;31.92;;;22.60;99.90;;;;;;5108235;28;20111;-73
2023/10/10 09:28:03;;;;;;;55.00;33.20;;;22.60;99.90;;;;;;5109018;28;20039;-72
2023/10/10 09:30:45;;;;;;;54.45;33.65;;;22.10;99.90;;;;;;5109492;28;20020;-73
2023/10/10 09:33:22;;;;;;;51.17;32.55;;;22.10;99.90;;;;;;5115815;28;20046;-72
2023/10/10 09:35:58;;;;;;;49.53;30.70;;;22.20;1.00;;;;;;5107197;28;20026;-73
2023/10/10 09:38:26;;;;;;;47.28;30.77;;;22.40;99.90;;;;;;5105034;28;20114;-73
2023/10/10 09:41:10;;;;;;;42.28;28.55;;;22.70;99.90;;;;;;5110737;27;20565;-73
2023/10/10 09:44:00;;;;;;;47.22;28.20;;;23.00;99.90;;;;;;5113816;28;20481;-73
2023/10/10 09:46:46;;;;;;;43.03;27.05;;;23.30;99.90;;;;;;5091481;28;20060;-73
2023/10/10 09:49:28;;;;;;;45.90;26.27;;;23.70;53.40;;;;;;5112777;27;20516;-73
2023/10/10 09:54:27;;;;;;;41.17;25.52;;;22.90;1.00;;;;;;5110244;28;20042;-73
2023/10/10 09:56:54;;;;;;;47.88;28.17;;;22.80;99.90;;;;;;5110453;28;20077;-72
2023/10/10 09:59:20;;;;;;;38.53;23.70;;;22.90;99.90;;;;;;5110672;28;20432;-72
2023/10/10 10:01:59;;;;;;;37.05;23.85;;;23.30;99.90;;;;;;5110891;28;20135;-72
2023/10/10 10:04:28;;;;;;;38.53;23.27;;;23.30;99.90;;;;;;5109596;28;20028;-73
2023/10/10 10:07:12;;;;;;;42.00;22.90;;;23.20;99.90;;;;;;5109954;28;20477;-73
2023/10/10 10:10:09;;;;;;;41.20;21.63;;;23.10;99.90;;;;;;5109825;27;20075;-72
2023/10/10 10:12:59;;;;;;;33.83;20.83;;;23.50;1.00;;;;;;5109774;28;20536;-72
2023/10/10 10:16:09;;;;;;;31.38;19.23;;;23.80;99.90;;;;;;5109085;27;20028;-72
2023/10/10 10:18:44;;;;;;;32.20;18.17;;;24.10;68.00;;;;;;5109932;28;20111;-72
2023/10/10 10:21:18;;;;;;;31.00;18.20;;;23.50;99.90;;;;;;5097308;28;20036;-73
2023/10/10 10:23:46;;;;;;;23.70;15.02;;;23.30;99.90;;;;;;5096914;28;20028;-72
2023/10/10 10:26:31;;;;;;;29.83;14.52;;;23.20;1.00;;;;;;5083038;28;20120;-72
2023/10/10 10:28:57;;;;;;;19.90;10.63;;;23.80;99.90;;;;;;5096575;28;20111;-72
2023/10/10 10:31:35;;;;;;;18.75;8.85;;;24.20;99.90;;;;;;5089865;28;20477;-72
2023/10/10 10:34:06;;;;;;;14.27;8.82;;;24.00;65.60;;;;;;5092227;28;20025;-72
2023/10/10 10:36:55;;;;;;;17.88;7.25;;;23.50;1.00;;;;;;5096407;28;20032;-73
2023/10/10 10:39:26;;;;;;;17.88;8.80;;;23.80;99.90;;;;;;5097084;28;20056;-73
2023/10/10 10:41:53;;;;;;;18.23;9.18;;;23.80;1.00;;;;;;5096151;28;20032;-73
2023/10/10 10:44:58;;;;;;;18.17;8.85;;;23.90;99.90;;;;;;5095575;28;20063;-73
2023/10/10 10:47:45;;;;;;;15.68;8.90;;;23.60;99.90;;;;;;5098069;28;20118;-73
2023/10/10 10:50:29;;;;;;;18.23;8.82;;;23.80;99.90;;;;;;5095628;28;20051;-74
2023/10/10 10:53:04;;;;;;;19.23;9.00;;;23.80;80.10;;;;;;5107469;28;20465;-73
2023/10/10 10:55:30;;;;;;;16.67;8.15;;;23.70;99.90;;;;;;5091297;28;20020;-73
2023/10/10 10:58:28;;;;;;;16.65;8.63;;;23.40;1.00;;;;;;5078442;28;20036;-73
2023/10/10 11:03:38;;;;;;;16.45;8.43;;;23.00;99.90;;;;;;5039198;28;20823;-73
2023/10/10 11:06:06;;;;;;;16.38;8.05;;;23.10;1.00;;;;;;5041695;28;20033;-73
2023/10/10 11:11:36;;;;;;;13.88;8.55;;;23.20;99.90;;;;;;5048696;28;20501;-73
2023/10/10 11:14:09;;;;;;;15.65;8.57;;;23.20;1.00;;;;;;5032876;28;20395;-73
2023/10/10 11:16:37;;;;;;;15.95;8.65;;;23.50;99.90;;;;;;5037703;28;20107;-73
2023/10/10 11:19:38;;;;;;;17.13;7.90;;;23.70;1.00;;;;;;5041535;28;20041;-73
2023/10/10 11:21:55;;;;;;;15.52;7.97;;;23.70;1.00;;;;;;5049904;28;20109;-73
2023/10/10 11:24:24;;;;;;;13.55;7.25;;;23.70;99.90;;;;;;5048059;28;20025;-73
2023/10/10 11:27:21;;;;;;;14.85;8.02;;;23.80;99.90;;;;;;5049091;28;20060;-73
2023/10/10 11:29:47;;;;;;;15.18;7.93;;;23.40;1.00;;;;;;5040059;28;20053;-73
2023/10/10 11:32:16;;;;;;;13.15;7.80;;;23.30;99.90;;;;;;5032425;28;20096;-74
2023/10/10 11:34:43;;;;;;;14.35;7.88;;;23.20;99.90;;;;;;5029864;28;20039;-72
2023/10/10 11:37:13;;;;;;;14.68;7.20;;;23.40;26.50;;;;;;5030337;28;20044;-73
2023/10/10 11:39:47;;;;;;;14.20;7.20;;;23.40;1.00;;;;;;5033469;28;20033;-72
2023/10/10 11:42:24;;;;;;;16.40;6.85;;;23.70;99.90;;;;;;5040319;28;20036;-73
2023/10/10 11:45:10;;;;;;;10.98;6.63;;;23.90;1.00;;;;;;5036415;28;20472;-72
2023/10/10 11:47:42;;;;;;;12.43;6.75;;;24.00;1.00;;;;;;5030175;28;20057;-73
2023/10/10 11:50:12;;;;;;;10.32;6.05;;;24.10;1.00;;;;;;5030702;28;20024;-73
2023/10/10 11:52:56;;;;;;;10.82;6.32;;;24.10;1.00;;;;;;5049133;28;20033;-73
2023/10/10 11:55:23;;;;;;;11.00;6.50;;;23.80;99.90;;;;;;5049027;28;20025;-73
2023/10/10 11:57:50;;;;;;;16.33;6.18;;;23.60;99.90;;;;;;5049349;28;20430;-74
2023/10/10 12:03:05;;;;;;;15.43;6.82;;;23.70;1.00;;;;;;5028834;28;20050;-73
2023/10/10 12:08:01;;;;;;;12.55;6.72;;;23.70;1.00;;;;;;5034859;28;20025;-73
2023/10/10 12:11:26;;;;;;;12.77;6.55;;;24.00;96.80;;;;;;5036830;28;20034;-73
2023/10/10 12:13:25;;;;;;;11.90;6.90;;;23.80;30.70;;;;;;5039995;28;20068;-73
2023/10/10 12:15:51;;;;;;;12.75;6.53;;;23.90;11.90;;;;;;5032865;28;20030;-73
2023/10/10 12:18:16;;;;;;;13.30;6.25;;;23.90;99.90;;;;;;5035017;28;20112;-74
2023/10/10 12:20:44;;;;;;;12.00;6.05;;;23.80;99.90;;;;;;5034474;28;20037;-73
2023/10/10 12:23:10;;;;;;;13.80;6.50;;;23.60;99.90;;;;;;5035012;28;20017;-73
2023/10/10 12:25:40;;;;;;;15.98;6.80;;;23.60;99.90;;;;;;5033728;28;20030;-73
2023/10/10 12:28:09;;;;;;;18.27;6.07;;;23.80;99.90;;;;;;5036047;28;20025;-73
2023/10/10 12:30:40;;;;;;;13.77;6.40;;;24.00;99.90;;;;;;5031279;28;20117;-74
2023/10/10 12:33:07;;;;;;;10.73;5.68;;;24.00;99.90;;;;;;5016834;28;20088;-74
2023/10/10 12:35:32;;;;;;;9.98;5.70;;;23.90;99.90;;;;;;5021940;28;20538;-74
2023/10/10 12:38:01;;;;;;;14.48;6.70;;;24.10;99.90;;;;;;5030645;28;20021;-73
2023/10/10 12:40:29;;;;;;;8.07;5.75;;;24.10;99.90;;;;;;5035544;28;20033;-73
2023/10/10 12:42:55;;;;;;;13.18;6.20;;;24.10;99.90;;;;;;5035840;28;20025;-73
2023/10/10 12:45:20;;;;;;;13.60;6.32;;;24.10;99.90;;;;;;5033383;28;20032;-73
2023/10/10 12:47:48;;;;;;;11.70;5.75;;;24.00;99.90;;;;;;5035251;28;20399;-73
2023/10/10 12:50:14;;;;;;;13.82;5.75;;;24.00;99.90;;;;;;5033248;28;20127;-73
2023/10/10 12:52:46;;;;;;;9.40;6.20;;;24.00;99.90;;;;;;5035391;28;20033;-73
2023/10/10 12:55:12;;;;;;;13.05;6.45;;;24.10;99.90;;;;;;5035886;28;20033;-73
2023/10/10 12:57:39;;;;;;;12.95;6.38;;;24.10;65.10;;;;;;5035169;28;20029;-73
2023/10/10 13:00:37;;;;;;;9.07;5.82;;;24.10;99.90;;;;;;5035046;28;20060;-73
2023/10/10 13:02:53;;;;;;;10.98;5.15;;;24.00;99.90;;;;;;5034082;28;20049;-73
2023/10/10 13:05:26;;;;;;;10.63;5.03;;;24.30;99.90;;;;;;5034799;28;20498;-73
2023/10/10 13:07:55;;;;;;;9.63;5.88;;;24.40;1.00;;;;;;5025317;28;20068;-74
2023/10/10 13:10:26;;;;;;;12.73;6.07;;;24.30;99.90;;;;;;5032179;28;20037;-74
2023/10/10 13:12:52;;;;;;;15.98;5.78;;;24.10;99.90;;;;;;5035172;28;20041;-73
2023/10/10 13:15:18;;;;;;;10.18;5.32;;;24.00;1.00;;;;;;5035301;28;20048;-73
2023/10/10 13:20:31;;;;;;;10.25;5.40;;;24.00;40.60;;;;;;5034653;28;20029;-73
2023/10/10 13:22:56;;;;;;;11.18;5.60;;;24.10;99.90;;;;;;5035431;28;20132;-73
2023/10/10 13:25:22;;;;;;;13.80;5.85;;;24.00;1.00;;;;;;5019870;28;20463;-73
2023/10/10 13:27:52;;;;;;;13.40;6.22;;;23.70;99.90;;;;;;5021816;28;20044;-73
2023/10/10 13:30:17;;;;;;;9.70;5.25;;;23.70;99.90;;;;;;5030753;28;20460;-74
2023/10/10 13:32:43;;;;;;;14.30;5.65;;;23.80;99.90;;;;;;5031424;28;20036;-73
2023/10/10 13:35:09;;;;;;;13.35;5.63;;;23.70;99.90;;;;;;5034305;28;20030;-73
2023/10/10 13:37:40;;;;;;;10.40;5.35;;;23.60;99.90;;;;;;5024361;28;20391;-74
2023/10/10 13:40:07;;;;;;;12.35;5.57;;;23.70;99.90;;;;;;5029195;28;20029;-74
2023/10/10 13:42:32;;;;;;;13.38;5.53;;;23.90;45.50;;;;;;5033859;28;20044;-74
2023/10/10 13:45:10;;;;;;;12.85;5.68;;;23.90;38.00;;;;;;5024279;28;20022;-75
2023/10/10 13:47:39;;;;;;;11.27;5.13;;;23.80;72.10;;;;;;5034784;28;20029;-75
2023/10/10 13:52:51;;;;;;;10.30;4.90;;;24.00;99.90;;;;;;5025018;28;20550;-74
2023/10/10 13:55:18;;;;;;;8.07;5.38;;;24.00;99.90;;;;;;5017421;28;20033;-75
2023/10/10 13:57:44;;;;;;;13.13;5.38;;;24.30;10.50;;;;;;5024758;28;20036;-73
2023/10/10 14:00:28;;;;;;;9.95;5.10;;;24.40;99.90;;;;;;5033571;28;20487;-73
2023/10/10 14:02:59;;;;;;;16.23;5.55;;;24.40;1.00;;;;;;5032690;28;20064;-73
2023/10/10 14:05:29;;;;;;;13.30;5.50;;;24.60;99.90;;;;;;5033486;28;20021;-73
2023/10/10 14:07:55;;;;;;;14.05;5.35;;;24.70;1.00;;;;;;5033062;28;20021;-73
2023/10/10 14:10:20;;;;;;;10.77;5.18;;;24.60;1.00;;;;;;5033589;28;20052;-73
2023/10/10 14:12:46;;;;;;;11.05;5.53;;;24.60;1.00;;;;;;5033264;28;20513;-73
2023/10/10 14:15:12;;;;;;;10.50;5.18;;;24.50;1.00;;;;;;5029127;28;20113;-75
2023/10/10 14:17:38;;;;;;;17.85;5.43;;;24.30;99.90;;;;;;5013695;28;20021;-73
2023/10/10 14:20:19;;;;;;;16.48;5.13;;;24.20;1.00;;;;;;5013372;28;20022;-74
2023/10/10 14:22:46;;;;;;;13.95;5.28;;;24.30;99.90;;;;;;5013228;28;20475;-73
2023/10/10 14:25:13;;;;;;;14.02;6.15;;;24.20;1.00;;;;;;5026870;28;20454;-74
2023/10/10 14:27:43;;;;;;;13.23;4.88;;;24.20;1.00;;;;;;5023839;28;20021;-73
2023/10/10 14:30:20;;;;;;;14.40;5.50;;;24.10;99.90;;;;;;5025016;28;20049;-73
2023/10/10 14:32:54;;;;;;;14.52;5.38;;;24.10;1.00;;;;;;5014275;28;20033;-74
2023/10/10 14:35:22;;;;;;;15.80;5.10;;;24.10;1.00;;;;;;5023417;28;20036;-73
2023/10/10 14:37:50;;;;;;;19.58;5.90;;;24.20;1.00;;;;;;5026676;28;20108;-73
2023/10/10 14:40:16;;;;;;;16.30;5.43;;;24.10;99.90;;;;;;5032268;28;20026;-74
2023/10/10 14:42:42;;;;;;;12.10;5.45;;;24.10;1.00;;;;;;5032414;28;20514;-74
2023/10/10 14:45:07;;;;;;;12.82;5.93;;;24.10;99.90;;;;;;5034015;28;20413;-73
2023/10/10 14:47:36;;;;;;;17.52;5.57;;;24.10;1.00;;;;;;5033440;28;20025;-73
2023/10/10 14:50:07;;;;;;;15.20;6.05;;;24.00;99.90;;;;;;5033921;28;20047;-74
2023/10/10 14:52:39;;;;;;;14.15;5.53;;;24.00;99.90;;;;;;5033924;28;20116;-74
2023/10/10 14:55:18;;;;;;;11.57;4.97;;;24.00;99.90;;;;;;5033903;28;20160;-74
2023/10/10 14:57:43;;;;;;;11.93;5.10;;;24.00;1.00;;;;;;5033840;28;20040;-74
2023/10/10 15:00:17;;;;;;;15.15;5.68;;;24.10;1.00;;;;;;5033546;28;20107;-74
2023/10/10 15:02:43;;;;;;;14.57;5.30;;;24.10;9.50;;;;;;5032771;28;20048;-74
2023/10/10 15:05:11;;;;;;;11.93;5.32;;;24.20;99.90;;;;;;5034037;28;20527;-74
2023/10/10 15:07:41;;;;;;;13.90;5.43;;;24.20;1.00;;;;;;5033441;28;20032;-74
2023/10/10 15:10:07;;;;;;;14.38;5.80;;;24.20;31.30;;;;;;5033970;28;20017;-75
2023/10/10 15:12:33;;;;;;;11.30;5.57;;;24.20;1.00;;;;;;5033965;28;20041;-75
2023/10/10 15:15:00;;;;;;;16.70;5.30;;;24.10;1.00;;;;;;5033753;28;20083;-73
2023/10/10 15:17:27;;;;;;;15.73;5.80;;;23.90;1.00;;;;;;5033897;28;20486;-73
2023/10/10 15:19:53;;;;;;;15.98;5.95;;;23.80;99.90;;;;;;5033881;28;20030;-74
2023/10/10 15:22:18;;;;;;;13.85;6.18;;;23.80;99.90;;;;;;5033270;28;20026;-74
2023/10/10 15:24:49;;;;;;;13.68;5.95;;;23.60;99.90;;;;;;5033580;28;20113;-74
2023/10/10 15:27:17;;;;;;;17.08;6.10;;;23.40;1.00;;;;;;5033184;28;20438;-73
2023/10/10 15:29:43;;;;;;;17.33;6.22;;;23.30;1.00;;;;;;5033749;28;20044;-74
2023/10/10 15:32:09;;;;;;;19.52;6.28;;;23.10;99.90;;;;;;5032958;28;20026;-73